createdAt,value
2023-03-22T00:00:51.026Z,65.11
2023-03-22T00:02:53.920Z,64.70
2023-03-22T00:04:56.836Z,65.10
2023-03-22T00:06:59.639Z,65.23
2023-03-22T00:09:02.456Z,65.31
2023-03-22T00:11:06.860Z,65.86
2023-03-22T00:13:11.017Z,65.37
2023-03-22T00:15:15.406Z,65.65
2023-03-22T00:17:18.395Z,66.32
2023-03-22T00:19:21.210Z,66.15
2023-03-22T00:21:24.206Z,65.43
2023-03-22T00:23:28.688Z,65.30
2023-03-22T00:25:31.997Z,65.41
2023-03-22T00:27:34.817Z,65.57
2023-03-22T00:29:37.875Z,65.20
2023-03-22T00:31:42.190Z,64.75
2023-03-22T00:33:45.292Z,65.29
2023-03-22T00:35:52.384Z,65.22
2023-03-22T00:37:55.272Z,65.00
2023-03-22T00:39:58.814Z,65.30
2023-03-22T00:42:01.808Z,65.49
2023-03-22T00:44:04.676Z,64.90
2023-03-22T00:46:08.224Z,64.51
2023-03-22T00:48:12.936Z,64.88
2023-03-22T00:50:15.911Z,64.67
2023-03-22T00:52:18.860Z,64.52
2023-03-22T00:54:21.628Z,64.44
2023-03-22T00:56:25.552Z,64.71
2023-03-22T00:58:36.760Z,64.63
2023-03-22T01:00:39.836Z,64.38
2023-03-22T01:02:45.298Z,64.76
2023-03-22T01:04:54.467Z,64.20
2023-03-22T01:06:59.314Z,64.39
2023-03-22T01:09:02.791Z,65.02
2023-03-22T01:11:07.177Z,64.73
2023-03-22T01:13:11.765Z,65.22
2023-03-22T01:15:14.681Z,65.07
2023-03-22T01:17:17.559Z,65.36
2023-03-22T01:19:21.010Z,65.87
2023-03-22T01:21:25.215Z,65.85
2023-03-22T01:23:28.667Z,65.69
2023-03-22T01:25:31.843Z,66.30
2023-03-22T01:27:34.630Z,66.36
2023-03-22T01:29:37.537Z,65.49
2023-03-22T01:31:40.478Z,65.88
2023-03-22T01:33:43.375Z,66.31
2023-03-22T01:35:46.307Z,65.59
2023-03-22T01:37:50.597Z,65.94
2023-03-22T01:39:55.070Z,65.80
2023-03-22T01:41:58.160Z,66.40
2023-03-22T01:44:15.829Z,65.99
2023-03-22T01:46:18.801Z,66.73
2023-03-22T01:48:27.026Z,66.11
2023-03-22T01:50:31.328Z,66.45
2023-03-22T01:52:34.371Z,66.52
2023-03-22T01:54:46.037Z,66.52
2023-03-22T01:57:04.180Z,66.72
2023-03-22T01:59:16.355Z,66.66
2023-03-22T02:01:35.983Z,66.10
2023-03-22T02:03:48.796Z,66.16
2023-03-22T02:05:51.950Z,66.31
2023-03-22T02:07:57.345Z,65.78
2023-03-22T02:10:02.748Z,66.09
2023-03-22T02:12:22.933Z,66.29
2023-03-22T02:14:58.273Z,66.37
2023-03-22T02:17:29.968Z,66.65
2023-03-22T02:20:05.644Z,67.17
2023-03-22T02:22:39.335Z,66.42
2023-03-22T02:25:08.895Z,65.81
2023-03-22T02:27:41.758Z,66.13
2023-03-22T02:29:48.180Z,65.91
2023-03-22T02:32:36.801Z,66.18
2023-03-22T02:34:57.505Z,66.10
2023-03-22T02:37:34.402Z,66.12
2023-03-22T02:39:43.772Z,66.71
2023-03-22T02:42:00.923Z,66.55
2023-03-22T02:44:13.782Z,66.42
2023-03-22T02:46:23.645Z,66.69
2023-03-22T02:48:28.941Z,67.10
2023-03-22T02:50:39.512Z,66.93
2023-03-22T02:52:46.867Z,67.10
2023-03-22T02:54:57.028Z,67.19
2023-03-22T02:57:03.900Z,66.53
2023-03-22T02:59:10.027Z,66.50
2023-03-22T03:01:19.868Z,66.55
2023-03-22T03:03:25.614Z,66.34
2023-03-22T03:05:31.924Z,66.66
2023-03-22T03:07:35.706Z,67.26
2023-03-22T03:09:41.272Z,66.75
2023-03-22T03:11:46.481Z,66.59
2023-03-22T03:13:49.653Z,66.81
2023-03-22T03:15:55.181Z,66.15
2023-03-22T03:18:14.125Z,66.32
2023-03-22T03:20:29.940Z,65.58
2023-03-22T03:22:45.122Z,66.48
2023-03-22T03:24:52.547Z,66.08
2023-03-22T03:27:03.648Z,65.83
2023-03-22T03:29:13.024Z,66.12
2023-03-22T03:31:26.325Z,66.08
2023-03-22T03:33:33.917Z,66.17
2023-03-22T03:35:45.347Z,66.50
2023-03-22T03:37:52.618Z,66.21
2023-03-22T03:39:59.888Z,66.76
2023-03-22T03:42:07.633Z,67.05
2023-03-22T03:44:11.543Z,66.29
2023-03-22T03:46:15.153Z,66.70
2023-03-22T03:48:21.420Z,67.26
2023-03-22T03:50:25.577Z,66.89
2023-03-22T03:52:31.496Z,66.73
2023-03-22T03:54:34.591Z,67.55
2023-03-22T03:56:38.275Z,66.97
2023-03-22T03:58:42.500Z,67.67
2023-03-22T04:00:46.954Z,66.69
2023-03-22T04:02:52.753Z,67.19
2023-03-22T04:05:19.331Z,67.10
2023-03-22T04:07:22.105Z,67.50
2023-03-22T04:09:26.941Z,67.35
2023-03-22T04:11:34.392Z,66.88
2023-03-22T04:13:38.824Z,67.26
2023-03-22T04:15:47.747Z,67.20
2023-03-22T04:17:53.631Z,66.81
2023-03-22T04:19:59.094Z,67.23
2023-03-22T04:22:02.271Z,66.65
2023-03-22T04:24:07.869Z,66.27
2023-03-22T04:26:14.616Z,66.81
2023-03-22T04:28:29.029Z,66.86
2023-03-22T04:30:36.187Z,66.55
2023-03-22T04:32:59.161Z,67.22
2023-03-22T04:35:16.592Z,67.25
2023-03-22T04:37:20.016Z,66.80
2023-03-22T04:39:28.514Z,67.05
2023-03-22T04:41:47.387Z,67.62
2023-03-22T04:43:51.066Z,67.00
2023-03-22T04:45:58.095Z,66.42
2023-03-22T04:48:10.437Z,66.89
2023-03-22T04:50:13.598Z,66.99
2023-03-22T04:52:23.843Z,67.41
2023-03-22T04:54:30.069Z,67.47
2023-03-22T04:56:32.946Z,67.20
2023-03-22T04:58:37.135Z,66.85
2023-03-22T05:00:42.316Z,66.79
2023-03-22T05:02:46.200Z,67.40
2023-03-22T05:05:00.751Z,67.02
2023-03-22T05:07:10.949Z,66.77
2023-03-22T05:09:28.196Z,67.19
2023-03-22T05:11:31.607Z,68.07
2023-03-22T05:13:54.948Z,67.87
2023-03-22T05:15:59.412Z,67.83
2023-03-22T05:18:14.326Z,68.01
2023-03-22T05:20:18.751Z,68.28
2023-03-22T05:22:27.643Z,68.16
2023-03-22T05:24:33.435Z,67.90
2023-03-22T05:26:38.050Z,67.80
2023-03-22T05:28:40.852Z,68.33
2023-03-22T05:30:51.457Z,67.76
2023-03-22T05:33:05.605Z,68.47
2023-03-22T05:35:14.041Z,67.89
2023-03-22T05:37:22.919Z,68.07
2023-03-22T05:39:29.484Z,68.76
2023-03-22T05:41:35.888Z,68.43
2023-03-22T05:43:39.681Z,68.02
2023-03-22T05:45:43.081Z,68.22
2023-03-22T05:47:59.329Z,67.84
2023-03-22T05:50:03.682Z,67.85
2023-03-22T05:52:07.935Z,68.12
2023-03-22T05:54:24.786Z,68.24
2023-03-22T05:56:28.742Z,71.22
2023-03-22T05:58:41.040Z,70.36
2023-03-22T06:00:45.229Z,68.69
2023-03-22T06:03:08.822Z,67.86
2023-03-22T06:05:18.288Z,66.66
2023-03-22T06:07:21.398Z,67.28
2023-03-22T06:09:30.587Z,67.80
2023-03-22T06:11:35.204Z,68.27
2023-03-22T06:13:41.185Z,68.01
2023-03-22T06:15:47.736Z,68.02
2023-03-22T06:17:56.607Z,68.42
2023-03-22T06:20:08.790Z,67.59
2023-03-22T06:22:11.777Z,67.25
2023-03-22T06:24:14.660Z,67.53
2023-03-22T06:26:18.803Z,68.26
2023-03-22T06:28:21.685Z,67.67
2023-03-22T06:30:27.167Z,67.90
2023-03-22T06:32:43.693Z,67.95
2023-03-22T06:34:46.714Z,68.05
2023-03-22T06:36:49.750Z,68.21
2023-03-22T06:39:13.609Z,67.89
2023-03-22T06:41:21.032Z,68.06
2023-03-22T06:43:24.176Z,67.88
2023-03-22T06:45:33.525Z,66.62
2023-03-22T06:47:37.682Z,67.72
2023-03-22T06:49:40.649Z,67.52
2023-03-22T06:51:44.844Z,67.87
2023-03-22T06:53:48.287Z,67.41
2023-03-22T06:55:53.737Z,67.87
2023-03-22T06:58:01.094Z,67.79
2023-03-22T07:00:05.326Z,68.17
2023-03-22T07:02:08.179Z,67.48
2023-03-22T07:04:11.023Z,67.81
2023-03-22T07:06:15.027Z,66.85
2023-03-22T07:08:21.718Z,67.04
2023-03-22T07:10:26.468Z,66.84
2023-03-22T07:12:37.300Z,66.79
2023-03-22T07:14:48.552Z,66.93
2023-03-22T07:17:01.753Z,66.19
2023-03-22T07:19:05.944Z,66.99
2023-03-22T07:21:08.931Z,66.75
2023-03-22T07:23:15.341Z,67.02
2023-03-22T07:25:24.595Z,66.93
2023-03-22T07:27:36.360Z,66.73
2023-03-22T07:29:39.850Z,66.05
2023-03-22T07:31:45.761Z,65.56
2023-03-22T07:34:01.115Z,65.30
2023-03-22T07:36:09.092Z,65.46
2023-03-22T07:38:11.936Z,64.84
2023-03-22T07:40:15.322Z,65.11
2023-03-22T07:42:18.316Z,64.90
2023-03-22T07:44:44.273Z,65.81
2023-03-22T07:46:48.706Z,65.58
2023-03-22T07:48:56.154Z,64.85
2023-03-22T07:51:19.136Z,64.69
2023-03-22T07:53:22.184Z,65.10
2023-03-22T07:55:26.256Z,65.25
2023-03-22T07:57:29.229Z,65.32
2023-03-22T07:59:36.328Z,65.29
2023-03-22T08:01:40.309Z,64.47
2023-03-22T08:03:55.217Z,64.98
2023-03-22T08:06:27.324Z,64.78
2023-03-22T08:08:30.291Z,64.33
2023-03-22T08:10:33.877Z,63.97
2023-03-22T08:12:37.029Z,63.72
2023-03-22T08:14:57.780Z,62.74
2023-03-22T08:17:02.584Z,62.94
2023-03-22T08:19:07.533Z,63.11
2023-03-22T08:21:12.884Z,63.29
2023-03-22T08:23:16.318Z,63.70
2023-03-22T08:25:23.528Z,63.78
2023-03-22T08:27:28.402Z,63.09
2023-03-22T08:29:33.939Z,62.94
2023-03-22T08:31:38.163Z,62.38
2023-03-22T08:33:41.164Z,62.43
2023-03-22T08:35:46.285Z,62.33
2023-03-22T08:37:49.454Z,61.86
2023-03-22T08:39:52.413Z,60.59
2023-03-22T08:42:07.139Z,61.08
2023-03-22T08:44:11.922Z,60.58
2023-03-22T08:46:15.832Z,60.08
2023-03-22T08:48:20.864Z,60.02
2023-03-22T08:50:48.341Z,60.20
2023-03-22T08:53:00.580Z,58.49
2023-03-22T08:55:09.251Z,58.70
2023-03-22T08:57:51.721Z,59.35
2023-03-22T09:00:16.246Z,58.41
2023-03-22T09:02:42.484Z,59.40
2023-03-22T09:04:45.524Z,59.64
2023-03-22T09:06:49.730Z,58.58
2023-03-22T09:08:52.960Z,59.11
2023-03-22T09:10:58.976Z,58.10
2023-03-22T09:13:02.013Z,58.39
2023-03-22T09:15:06.200Z,57.93
2023-03-22T09:17:09.916Z,56.54
2023-03-22T09:19:12.800Z,56.55
2023-03-22T09:21:16.636Z,56.73
2023-03-22T09:23:42.478Z,55.63
2023-03-22T09:25:48.404Z,55.79
2023-03-22T09:27:55.092Z,56.07
2023-03-22T09:29:58.070Z,54.26
2023-03-22T09:32:00.832Z,53.87
2023-03-22T09:34:07.777Z,54.59
2023-03-22T09:36:12.701Z,54.10
2023-03-22T09:38:16.369Z,53.90
2023-03-22T09:40:27.894Z,53.10
2023-03-22T09:42:37.666Z,53.82
2023-03-22T09:44:44.368Z,53.88
2023-03-22T09:46:56.167Z,53.69
2023-03-22T09:49:02.894Z,54.23
2023-03-22T09:51:08.573Z,52.77
2023-03-22T09:53:14.871Z,53.98
2023-03-22T09:55:31.445Z,53.47
2023-03-22T09:57:37.512Z,51.83
2023-03-22T09:59:45.409Z,52.50
2023-03-22T10:01:54.252Z,52.85
2023-03-22T10:04:10.962Z,53.56
2023-03-22T10:06:18.782Z,53.61
2023-03-22T10:08:42.063Z,53.94
2023-03-22T10:10:46.707Z,54.45
2023-03-22T10:12:52.993Z,53.84
2023-03-22T10:15:04.274Z,52.34
2023-03-22T10:17:12.521Z,52.81
2023-03-22T10:19:21.692Z,52.48
2023-03-22T10:21:24.906Z,52.77
2023-03-22T10:23:33.798Z,52.04
2023-03-22T10:25:38.814Z,51.49
2023-03-22T10:27:43.936Z,50.87
2023-03-22T10:29:52.246Z,50.98
2023-03-22T10:31:55.957Z,51.55
2023-03-22T10:34:02.048Z,51.52
2023-03-22T10:36:07.164Z,50.97
2023-03-22T10:38:20.600Z,50.51
2023-03-22T10:40:27.248Z,50.68
2023-03-22T10:42:32.158Z,49.85
2023-03-22T10:44:45.883Z,48.75
2023-03-22T10:46:51.011Z,48.34
2023-03-22T10:48:58.865Z,48.04
2023-03-22T10:51:02.364Z,47.08
2023-03-22T10:53:08.011Z,47.61
2023-03-22T10:55:14.043Z,48.51
2023-03-22T10:57:17.317Z,47.57
2023-03-22T10:59:47.277Z,47.53
2023-03-22T11:01:52.593Z,47.72
2023-03-22T11:03:58.709Z,47.92
2023-03-22T11:06:03.371Z,47.78
2023-03-22T11:08:06.659Z,46.90
2023-03-22T11:10:28.921Z,47.29
2023-03-22T11:12:31.878Z,47.13
2023-03-22T11:14:37.000Z,47.15
2023-03-22T11:16:48.440Z,47.58
2023-03-22T11:18:51.798Z,47.48
2023-03-22T11:20:59.511Z,47.15
2023-03-22T11:23:05.222Z,46.41
2023-03-22T11:25:14.769Z,45.37
2023-03-22T11:27:21.473Z,45.53
2023-03-22T11:29:24.348Z,45.95
2023-03-22T11:31:27.701Z,45.49
2023-03-22T11:33:32.947Z,45.45
2023-03-22T11:35:38.180Z,45.15
2023-03-22T11:37:42.674Z,45.25
2023-03-22T11:39:49.180Z,44.08
2023-03-22T11:41:53.600Z,44.52
2023-03-22T11:43:57.676Z,44.62
2023-03-22T11:46:01.502Z,44.95
2023-03-22T11:48:08.007Z,43.29
2023-03-22T11:50:26.845Z,43.79
2023-03-22T11:52:30.531Z,45.15
2023-03-22T11:54:38.106Z,44.16
2023-03-22T11:56:43.376Z,43.93
2023-03-22T11:59:06.511Z,43.67
2023-03-22T12:01:15.386Z,43.16
2023-03-22T12:03:23.760Z,43.51
2023-03-22T12:05:31.034Z,43.48
2023-03-22T12:07:36.407Z,44.11
2023-03-22T12:09:42.852Z,43.22
2023-03-22T12:11:50.022Z,43.11
2023-03-22T12:13:58.502Z,42.28
2023-03-22T12:16:03.897Z,42.70
2023-03-22T12:18:12.844Z,42.73
2023-03-22T12:20:22.858Z,42.17
2023-03-22T12:22:32.801Z,43.64
2023-03-22T12:24:35.718Z,44.11
2023-03-22T12:26:39.397Z,43.35
2023-03-22T12:28:48.409Z,43.24
2023-03-22T12:30:56.099Z,43.22
2023-03-22T12:33:03.661Z,42.33
2023-03-22T12:35:17.582Z,41.96
2023-03-22T12:37:42.382Z,41.80
2023-03-22T12:39:51.852Z,40.34
2023-03-22T12:41:58.362Z,40.50
2023-03-22T12:46:50.832Z,38.46
2023-03-22T12:48:59.579Z,38.52
2023-03-22T12:51:06.883Z,38.78
2023-03-22T12:53:15.898Z,39.06
2023-03-22T12:55:23.742Z,38.09
2023-03-22T12:57:27.376Z,37.40
2023-03-22T12:59:32.504Z,37.39
2023-03-22T13:01:40.824Z,37.93
2023-03-22T13:03:47.971Z,37.58
2023-03-22T13:06:00.373Z,38.27
2023-03-22T13:08:05.885Z,38.35
2023-03-22T13:10:42.340Z,39.29
2023-03-22T13:13:12.974Z,39.40
2023-03-22T13:15:41.321Z,39.32
2023-03-22T13:17:46.854Z,38.93
2023-03-22T13:19:53.492Z,38.88
2023-03-22T13:22:15.288Z,38.04
2023-03-22T13:24:23.832Z,38.15
2023-03-22T13:26:33.200Z,38.19
2023-03-22T13:28:38.214Z,38.35
2023-03-22T13:30:50.251Z,38.97
2023-03-22T13:32:56.528Z,38.72
2023-03-22T13:35:00.661Z,37.16
2023-03-22T13:37:05.232Z,36.87
2023-03-22T13:39:12.289Z,36.41
2023-03-22T13:41:22.556Z,37.02
2023-03-22T13:43:34.565Z,36.82
2023-03-22T13:45:59.677Z,36.82
2023-03-22T13:48:07.676Z,36.48
2023-03-22T13:50:16.007Z,36.98
2023-03-22T13:52:28.695Z,37.63
2023-03-22T13:54:38.749Z,37.31
2023-03-22T13:56:53.266Z,37.24
2023-03-22T13:58:58.594Z,37.40
2023-03-22T14:01:04.684Z,36.81
2023-03-22T14:03:15.475Z,36.65
2023-03-22T14:05:22.251Z,35.59
2023-03-22T14:07:30.764Z,36.38
2023-03-22T14:09:36.686Z,36.28
2023-03-22T14:11:45.560Z,36.20
2023-03-22T14:13:52.208Z,35.71
2023-03-22T14:15:57.545Z,36.41
2023-03-22T14:18:07.886Z,37.18
2023-03-22T14:20:16.101Z,35.95
